Time,TemperatureF,DewpointF,PressureIn,WindDirection,WindDirectionDegrees,WindSpeedMPH,WindSpeedGustMPH,Humidity,HourlyPrecipIn,Conditions,Clouds,dailyrainin,SoftwareType,DateUTC
2013-11-28 00:09:00,37.5,35.1,30.22,West,268,0.0,3.0,91,0.00,,,0.00,Weather View 32 v70,2013-11-28 05:09:00,
2013-11-28 00:19:00,37.6,34.9,30.22,West,269,1.0,3.0,90,0.00,,,0.00,Weather View 32 v70,2013-11-28 05:19:00,
2013-11-28 00:29:00,37.8,35.1,30.22,West,269,0.0,3.0,90,0.00,,,0.00,Weather View 32 v70,2013-11-28 05:29:00,
2013-11-28 00:39:00,37.6,34.9,30.22,WNW,284,0.0,3.0,90,0.00,,,0.00,Weather View 32 v70,2013-11-28 05:39:00,
2013-11-28 00:49:00,37.6,34.9,30.22,WNW,294,0.0,3.0,90,0.00,,,0.00,Weather View 32 v70,2013-11-28 05:49:00,
2013-11-28 00:59:00,37.4,34.5,30.22,West,260,1.0,3.0,89,0.00,,,0.00,Weather View 32 v70,2013-11-28 05:59:00,
2013-11-28 01:09:00,37.3,34.4,30.22,West,279,0.0,4.0,89,0.00,,,0.00,Weather View 32 v70,2013-11-28 06:09:00,
2013-11-28 01:19:00,37.0,34.1,30.22,West,273,0.0,4.0,89,0.00,,,0.00,Weather View 32 v70,2013-11-28 06:19:00,
2013-11-28 01:29:00,36.9,34.0,30.23,West,267,0.0,5.0,89,0.00,,,0.00,Weather View 32 v70,2013-11-28 06:29:00,
2013-11-28 01:39:00,36.7,33.5,30.23,NW,305,0.0,5.0,88,0.00,,,0.00,Weather View 32 v70,2013-11-28 06:39:00,
2013-11-28 01:44:00,36.7,33.5,30.23,NW,305,0.0,5.0,88,0.00,,,0.00,Weather View 32 v70,2013-11-28 06:44:00,
2013-11-28 01:49:00,36.7,33.8,30.23,West,272,0.0,5.0,89,0.00,,,0.00,Weather View 32 v70,2013-11-28 06:49:00,
2013-11-28 01:59:00,36.3,33.4,30.23,West,272,0.0,5.0,89,0.00,,,0.00,Weather View 32 v70,2013-11-28 06:59:00,
2013-11-28 02:09:00,36.2,33.3,30.23,West,271,0.0,5.0,89,0.00,,,0.00,Weather View 32 v70,2013-11-28 07:09:00,
2013-11-28 02:19:00,35.9,33.0,30.23,WNW,302,0.0,5.0,89,0.00,,,0.00,Weather View 32 v70,2013-11-28 07:19:00,
2013-11-28 02:29:00,35.7,32.8,30.23,West,263,0.0,4.0,89,0.00,,,0.00,Weather View 32 v70,2013-11-28 07:29:00,
2013-11-28 02:39:00,35.5,32.9,30.23,West,263,0.0,3.0,90,0.00,,,0.00,Weather View 32 v70,2013-11-28 07:39:00,
2013-11-28 02:45:00,35.5,32.9,30.23,West,263,0.0,3.0,90,0.00,,,0.00,Weather View 32 v70,2013-11-28 07:45:00,
2013-11-28 02:49:00,35.2,32.6,30.23,West,263,0.0,3.0,90,0.00,,,0.00,Weather View 32 v70,2013-11-28 07:49:00,
2013-11-28 02:59:00,34.9,32.5,30.24,West,263,0.0,3.0,91,0.00,,,0.00,Weather View 32 v70,2013-11-28 07:59:00,
2013-11-28 03:09:00,34.6,32.2,30.24,West,263,0.0,3.0,91,0.00,,,0.00,Weather View 32 v70,2013-11-28 08:09:00,
2013-11-28 03:19:00,34.1,32.0,30.24,West,263,0.0,3.0,92,0.00,,,0.00,Weather View 32 v70,2013-11-28 08:19:00,
2013-11-28 03:29:00,33.8,31.7,30.24,West,263,0.0,2.0,92,0.00,,,0.00,Weather View 32 v70,2013-11-28 08:29:00,
2013-11-28 03:39:00,33.5,31.4,30.25,West,263,0.0,1.0,92,0.00,,,0.00,Weather View 32 v70,2013-11-28 08:39:00,
2013-11-28 03:45:00,33.5,31.4,30.25,West,263,0.0,1.0,92,0.00,,,0.00,Weather View 32 v70,2013-11-28 08:45:00,
2013-11-28 03:49:00,33.6,31.8,30.25,West,263,0.0,1.0,93,0.00,,,0.00,Weather View 32 v70,2013-11-28 08:49:00,
2013-11-28 03:59:00,33.7,31.9,30.25,West,263,0.0,1.0,93,0.00,,,0.00,Weather View 32 v70,2013-11-28 08:59:00,
2013-11-28 04:09:00,33.5,31.7,30.25,West,268,0.0,3.0,93,0.00,,,0.00,Weather View 32 v70,2013-11-28 09:09:00,
2013-11-28 04:19:00,33.3,31.0,30.25,West,268,0.0,3.0,91,0.00,,,0.00,Weather View 32 v70,2013-11-28 09:19:00,
2013-11-28 04:29:00,33.6,31.3,30.26,West,268,0.0,3.0,91,0.00,,,0.00,Weather View 32 v70,2013-11-28 09:29:00,
2013-11-28 04:39:00,33.4,30.8,30.26,West,268,0.0,3.0,90,0.00,,,0.00,Weather View 32 v70,2013-11-28 09:39:00,
2013-11-28 04:46:00,33.4,30.8,30.26,West,268,0.0,3.0,90,0.00,,,0.00,Weather View 32 v70,2013-11-28 09:46:00,
2013-11-28 04:59:00,33.2,30.9,30.27,West,268,0.0,3.0,91,0.00,,,0.00,Weather View 32 v70,2013-11-28 09:59:00,
2013-11-28 05:09:00,32.9,30.6,30.27,West,268,0.0,3.0,91,0.00,,,0.00,Weather View 32 v70,2013-11-28 10:09:00,
2013-11-28 05:19:00,32.6,30.3,30.28,West,268,0.0,2.0,91,0.00,,,0.00,Weather View 32 v70,2013-11-28 10:19:00,
2013-11-28 05:29:00,32.5,30.4,30.28,West,268,0.0,2.0,92,0.00,,,0.00,Weather View 32 v70,2013-11-28 10:29:00,
2013-11-28 05:39:00,32.1,30.0,30.29,West,268,0.0,0.0,92,0.00,,,0.00,Weather View 32 v70,2013-11-28 10:39:00,
2013-11-28 05:47:00,32.1,30.0,30.29,West,268,0.0,0.0,92,0.00,,,0.00,Weather View 32 v70,2013-11-28 10:47:00,
2013-11-28 05:49:00,31.9,30.1,30.30,West,268,0.0,1.0,93,0.00,,,0.00,Weather View 32 v70,2013-11-28 10:49:00,
2013-11-28 05:59:00,32.0,30.2,30.30,West,268,0.0,2.0,93,0.00,,,0.00,Weather View 32 v70,2013-11-28 10:59:00,
2013-11-28 06:09:00,32.1,30.3,30.31,West,268,0.0,2.0,93,0.00,,,0.00,Weather View 32 v70,2013-11-28 11:09:00,
2013-11-28 06:19:00,31.9,29.8,30.32,West,268,0.0,2.0,92,0.00,,,0.00,Weather View 32 v70,2013-11-28 11:19:00,
2013-11-28 06:29:00,31.7,29.6,30.32,West,279,0.0,3.0,92,0.00,,,0.00,Weather View 32 v70,2013-11-28 11:29:00,
2013-11-28 06:39:00,31.6,29.5,30.32,WNW,290,1.0,4.0,92,0.00,,,0.00,Weather View 32 v70,2013-11-28 11:39:00,
2013-11-28 06:47:00,31.6,29.5,30.32,WNW,290,1.0,4.0,92,0.00,,,0.00,Weather View 32 v70,2013-11-28 11:47:00,
2013-11-28 06:49:00,31.6,29.5,30.32,West,260,0.0,4.0,92,0.00,,,0.00,Weather View 32 v70,2013-11-28 11:49:00,
2013-11-28 06:59:00,31.6,29.5,30.33,West,275,1.0,4.0,92,0.00,,,0.00,Weather View 32 v70,2013-11-28 11:59:00,
2013-11-28 07:09:00,31.7,29.6,30.33,West,277,0.0,4.0,92,0.00,,,0.00,Weather View 32 v70,2013-11-28 12:09:00,
2013-11-28 07:19:00,31.6,29.3,30.33,West,275,1.0,4.0,91,0.00,,,0.00,Weather View 32 v70,2013-11-28 12:19:00,
2013-11-28 07:29:00,31.8,29.5,30.33,West,274,0.0,4.0,91,0.00,,,0.00,Weather View 32 v70,2013-11-28 12:29:00,
2013-11-28 07:39:00,32.4,29.8,30.33,West,259,3.0,5.0,90,0.00,,,0.00,Weather View 32 v70,2013-11-28 12:39:00,
2013-11-28 07:48:00,32.4,29.8,30.33,West,259,3.0,5.0,90,0.00,,,0.00,Weather View 32 v70,2013-11-28 12:48:00,
2013-11-28 07:49:00,32.9,29.7,30.33,WSW,256,1.0,5.0,88,0.00,,,0.00,Weather View 32 v70,2013-11-28 12:49:00,
2013-11-28 07:59:00,33.5,30.0,30.34,West,276,0.0,6.0,87,0.00,,,0.00,Weather View 32 v70,2013-11-28 12:59:00,
2013-11-28 08:09:00,34.1,30.4,30.34,West,279,1.0,6.0,86,0.00,,,0.00,Weather View 32 v70,2013-11-28 13:09:00,
2013-11-28 08:19:00,34.5,30.7,30.34,West,281,3.0,6.0,86,0.00,,,0.00,Weather View 32 v70,2013-11-28 13:19:00,
2013-11-28 08:29:00,35.5,31.7,30.35,SSW,205,0.0,6.0,86,0.00,,,0.00,Weather View 32 v70,2013-11-28 13:29:00,
2013-11-28 08:39:00,36.1,31.7,30.35,NNW,337,3.0,7.0,84,0.00,,,0.00,Weather View 32 v70,2013-11-28 13:39:00,
2013-11-28 08:48:00,36.1,31.7,30.35,NNW,337,3.0,7.0,84,0.00,,,0.00,Weather View 32 v70,2013-11-28 13:48:00,
2013-11-28 08:49:00,36.6,31.9,30.36,NW,308,0.0,7.0,83,0.00,,,0.00,Weather View 32 v70,2013-11-28 13:49:00,
2013-11-28 08:59:00,37.7,32.7,30.36,WNW,286,0.0,7.0,82,0.00,,,0.00,Weather View 32 v70,2013-11-28 13:59:00,
2013-11-28 09:09:00,38.7,33.7,30.36,North,355,5.0,7.0,82,0.00,,,0.00,Weather View 32 v70,2013-11-28 14:09:00,
2013-11-28 09:19:00,39.5,34.1,30.36,NNW,342,3.0,7.0,81,0.00,,,0.00,Weather View 32 v70,2013-11-28 14:19:00,
2013-11-28 09:29:00,40.4,35.0,30.37,North,5,1.0,7.0,81,0.00,,,0.00,Weather View 32 v70,2013-11-28 14:29:00,
2013-11-28 09:39:00,41.2,35.5,30.37,North,5,1.0,7.0,80,0.00,,,0.00,Weather View 32 v70,2013-11-28 14:39:00,
2013-11-28 09:49:00,41.2,35.5,30.37,North,5,1.0,7.0,80,0.00,,,0.00,Weather View 32 v70,2013-11-28 14:49:00,
2013-11-28 09:59:00,43.4,37.6,30.38,West,271,0.0,7.0,80,0.00,,,0.00,Weather View 32 v70,2013-11-28 14:59:00,
2013-11-28 10:09:00,44.5,38.4,30.38,NNE,13,4.0,7.0,79,0.00,,,0.00,Weather View 32 v70,2013-11-28 15:09:00,
2013-11-28 10:19:00,44.9,38.4,30.38,WNW,282,0.0,7.0,78,0.00,,,0.00,Weather View 32 v70,2013-11-28 15:19:00,
2013-11-28 10:29:00,45.8,39.3,30.38,WSW,248,3.0,7.0,78,0.00,,,0.00,Weather View 32 v70,2013-11-28 15:29:00,
2013-11-28 10:39:00,46.3,39.5,30.37,NNE,31,5.0,8.0,77,0.00,,,0.00,Weather View 32 v70,2013-11-28 15:39:00,
2013-11-28 10:50:00,47.1,40.2,30.37,NNE,24,6.0,9.0,77,0.00,,,0.00,Weather View 32 v70,2013-11-28 15:50:00,
2013-11-28 10:59:00,47.8,40.2,30.37,NNE,28,4.0,10.0,75,0.00,,,0.00,Weather View 32 v70,2013-11-28 15:59:00,
2013-11-28 11:09:00,49.2,41.6,30.37,North,11,1.0,10.0,75,0.00,,,0.00,Weather View 32 v70,2013-11-28 16:09:00,
2013-11-28 11:19:00,49.9,41.9,30.37,NNW,342,1.0,10.0,74,0.00,,,0.00,Weather View 32 v70,2013-11-28 16:19:00,
2013-11-28 11:29:00,51.0,43.0,30.36,NW,307,1.0,10.0,74,0.00,,,0.00,Weather View 32 v70,2013-11-28 16:29:00,
2013-11-28 11:39:00,51.4,43.7,30.36,NNE,20,7.0,12.0,75,0.00,,,0.00,Weather View 32 v70,2013-11-28 16:39:00,
2013-11-28 11:49:00,51.8,43.0,30.35,West,274,5.0,12.0,72,0.00,,,0.00,Weather View 32 v70,2013-11-28 16:49:00,
2013-11-28 11:50:00,51.8,43.0,30.35,West,274,5.0,12.0,72,0.00,,,0.00,Weather View 32 v70,2013-11-28 16:50:00,
2013-11-28 11:59:00,52.9,44.5,30.36,NNE,14,0.0,12.0,73,0.00,,,0.00,Weather View 32 v70,2013-11-28 16:59:00,
2013-11-28 12:09:00,52.7,43.9,30.35,NNE,28,4.0,12.0,72,0.00,,,0.00,Weather View 32 v70,2013-11-28 17:09:00,
2013-11-28 12:19:00,53.4,44.2,30.35,North,355,2.0,12.0,71,0.00,,,0.00,Weather View 32 v70,2013-11-28 17:19:00,
2013-11-28 12:29:00,53.7,44.9,30.34,NNE,28,10.0,16.0,72,0.00,,,0.00,Weather View 32 v70,2013-11-28 17:29:00,
2013-11-28 12:39:00,54.1,44.9,30.34,North,5,4.0,16.0,71,0.00,,,0.00,Weather View 32 v70,2013-11-28 17:39:00,
2013-11-28 12:49:00,54.9,45.7,30.33,NNE,13,4.0,16.0,71,0.00,,,0.00,Weather View 32 v70,2013-11-28 17:49:00,
2013-11-28 12:59:00,54.9,45.3,30.33,NE,39,9.0,16.0,70,0.00,,,0.00,Weather View 32 v70,2013-11-28 17:59:00,
2013-11-28 13:09:00,54.6,45.4,30.33,NNW,342,1.0,16.0,71,0.00,,,0.00,Weather View 32 v70,2013-11-28 18:09:00,
2013-11-28 13:19:00,54.8,45.6,30.32,NNE,13,3.0,16.0,71,0.00,,,0.00,Weather View 32 v70,2013-11-28 18:19:00,
2013-11-28 13:29:00,55.0,45.4,30.32,NNE,18,4.0,15.0,70,0.00,,,0.00,Weather View 32 v70,2013-11-28 18:29:00,
2013-11-28 13:39:00,55.0,46.5,30.32,NE,51,3.0,15.0,73,0.00,,,0.00,Weather View 32 v70,2013-11-28 18:39:00,
2013-11-28 13:49:00,55.4,45.8,30.31,North,360,3.0,15.0,70,0.00,,,0.00,Weather View 32 v70,2013-11-28 18:49:00,
2013-11-28 13:51:00,55.4,45.8,30.31,North,360,3.0,15.0,70,0.00,,,0.00,Weather View 32 v70,2013-11-28 18:51:00,
2013-11-28 13:59:00,55.3,46.0,30.31,NE,43,5.0,15.0,71,0.00,,,0.00,Weather View 32 v70,2013-11-28 18:59:00,
2013-11-28 14:09:00,55.6,45.9,30.31,North,11,6.0,12.0,70,0.00,,,0.00,Weather View 32 v70,2013-11-28 19:09:00,
2013-11-28 14:19:00,55.8,46.1,30.30,NE,41,7.0,12.0,70,0.00,,,0.00,Weather View 32 v70,2013-11-28 19:19:00,
2013-11-28 14:29:00,56.3,47.0,30.30,NNW,336,3.0,12.0,71,0.00,,,0.00,Weather View 32 v70,2013-11-28 19:29:00,
2013-11-28 14:39:00,56.8,47.5,30.30,North,360,6.0,12.0,71,0.00,,,0.00,Weather View 32 v70,2013-11-28 19:39:00,
2013-11-28 14:49:00,56.9,47.2,30.30,NNW,343,5.0,12.0,70,0.00,,,0.00,Weather View 32 v70,2013-11-28 19:49:00,
2013-11-28 14:52:00,56.9,47.2,30.30,NNW,343,5.0,12.0,70,0.00,,,0.00,Weather View 32 v70,2013-11-28 19:52:00,
2013-11-28 14:59:00,56.8,47.1,30.30,North,9,6.0,11.0,70,0.00,,,0.00,Weather View 32 v70,2013-11-28 19:59:00,
2013-11-28 15:09:00,56.8,47.5,30.31,NE,50,9.0,11.0,71,0.00,,,0.00,Weather View 32 v70,2013-11-28 20:09:00,
2013-11-28 15:19:00,56.8,47.5,30.31,North,360,3.0,11.0,71,0.00,,,0.00,Weather View 32 v70,2013-11-28 20:19:00,
2013-11-28 15:29:00,56.9,47.2,30.32,NE,35,3.0,11.0,70,0.00,,,0.00,Weather View 32 v70,2013-11-28 20:29:00,
2013-11-28 15:39:00,56.8,47.5,30.32,North,5,5.0,11.0,71,0.00,,,0.00,Weather View 32 v70,2013-11-28 20:39:00,
2013-11-28 15:49:00,57.0,47.3,30.32,NNE,23,4.0,11.0,70,0.00,,,0.00,Weather View 32 v70,2013-11-28 20:49:00,
2013-11-28 15:52:00,57.0,47.3,30.32,NNE,23,4.0,11.0,70,0.00,,,0.00,Weather View 32 v70,2013-11-28 20:52:00,
2013-11-28 15:59:00,56.5,47.2,30.33,NNE,26,7.0,11.0,71,0.00,,,0.00,Weather View 32 v70,2013-11-28 20:59:00,
2013-11-28 16:09:00,56.0,47.1,30.33,North,9,0.0,11.0,72,0.00,,,0.00,Weather View 32 v70,2013-11-28 21:09:00,
2013-11-28 16:19:00,55.9,47.4,30.33,NNE,28,3.0,11.0,73,0.00,,,0.00,Weather View 32 v70,2013-11-28 21:19:00,
2013-11-28 16:29:00,56.0,47.4,30.33,NNW,342,6.0,10.0,73,0.00,,,0.00,Weather View 32 v70,2013-11-28 21:29:00,
2013-11-28 16:39:00,55.9,47.0,30.33,North,360,2.0,10.0,72,0.00,,,0.00,Weather View 32 v70,2013-11-28 21:39:00,
2013-11-28 16:49:00,55.5,47.3,30.34,North,5,0.0,10.0,74,0.00,,,0.00,Weather View 32 v70,2013-11-28 21:49:00,
2013-11-28 16:53:00,55.5,47.3,30.34,North,5,0.0,10.0,74,0.00,,,0.00,Weather View 32 v70,2013-11-28 21:53:00,
2013-11-28 16:59:00,55.1,46.9,30.35,NNE,32,3.0,10.0,74,0.00,,,0.00,Weather View 32 v70,2013-11-28 21:59:00,
2013-11-28 17:09:00,54.8,47.7,30.35,North,5,1.0,10.0,77,0.00,,,0.00,Weather View 32 v70,2013-11-28 22:09:00,
2013-11-28 17:19:00,54.5,47.4,30.36,North,355,6.0,11.0,77,0.00,,,0.00,Weather View 32 v70,2013-11-28 22:19:00,
2013-11-28 17:29:00,54.2,47.5,30.36,North,360,3.0,11.0,78,0.00,,,0.00,Weather View 32 v70,2013-11-28 22:29:00,
2013-11-28 17:39:00,53.9,47.5,30.36,North,355,0.0,11.0,79,0.00,,,0.00,Weather View 32 v70,2013-11-28 22:39:00,
2013-11-28 17:49:00,53.5,47.1,30.37,NNE,22,5.0,11.0,79,0.00,,,0.00,Weather View 32 v70,2013-11-28 22:49:00,
2013-11-28 17:54:00,53.5,47.1,30.37,NNE,22,5.0,11.0,79,0.00,,,0.00,Weather View 32 v70,2013-11-28 22:54:00,
2013-11-28 17:59:00,53.1,46.7,30.37,NE,34,0.0,11.0,79,0.00,,,0.00,Weather View 32 v70,2013-11-28 22:59:00,
2013-11-28 18:09:00,52.7,46.7,30.37,NNW,346,4.0,11.0,80,0.00,,,0.00,Weather View 32 v70,2013-11-28 23:09:00,
2013-11-28 18:19:00,52.4,46.7,30.37,North,355,1.0,7.0,81,0.00,,,0.00,Weather View 32 v70,2013-11-28 23:19:00,
2013-11-28 18:29:00,52.2,46.5,30.38,North,5,1.0,7.0,81,0.00,,,0.00,Weather View 32 v70,2013-11-28 23:29:00,
2013-11-28 18:39:00,52.0,46.3,30.38,ENE,58,4.0,6.0,81,0.00,,,0.00,Weather View 32 v70,2013-11-28 23:39:00,
2013-11-28 18:49:00,52.0,46.0,30.38,NNE,22,4.0,8.0,80,0.00,,,0.00,Weather View 32 v70,2013-11-28 23:49:00,
2013-11-28 18:54:00,52.0,46.0,30.38,NNE,22,4.0,8.0,80,0.00,,,0.00,Weather View 32 v70,2013-11-28 23:54:00,
2013-11-28 18:59:00,52.0,46.0,30.38,North,355,2.0,8.0,80,0.00,,,0.00,Weather View 32 v70,2013-11-28 23:59:00,
2013-11-28 19:09:00,51.7,45.7,30.38,NNE,27,1.0,8.0,80,0.00,,,0.00,Weather View 32 v70,2013-11-29 00:09:00,
2013-11-28 19:19:00,51.3,45.7,30.39,North,350,2.0,8.0,81,0.00,,,0.00,Weather View 32 v70,2013-11-29 00:19:00,
2013-11-28 19:29:00,51.3,46.0,30.39,WNW,301,0.0,9.0,82,0.00,,,0.00,Weather View 32 v70,2013-11-29 00:29:00,
2013-11-28 19:39:00,50.9,45.3,30.39,North,355,2.0,9.0,81,0.00,,,0.00,Weather View 32 v70,2013-11-29 00:39:00,
2013-11-28 19:49:00,50.3,44.7,30.39,NNE,13,4.0,9.0,81,0.00,,,0.00,Weather View 32 v70,2013-11-29 00:49:00,
2013-11-28 19:55:00,50.3,44.7,30.39,NNE,13,4.0,9.0,81,0.00,,,0.00,Weather View 32 v70,2013-11-29 00:55:00,
2013-11-28 19:59:00,49.9,44.6,30.40,NNW,348,1.0,9.0,82,0.00,,,0.00,Weather View 32 v70,2013-11-29 00:59:00,
2013-11-28 20:09:00,49.4,44.1,30.40,North,10,1.0,9.0,82,0.00,,,0.00,Weather View 32 v70,2013-11-29 01:09:00,
2013-11-28 20:19:00,49.0,44.1,30.40,NNE,15,1.0,9.0,83,0.00,,,0.00,Weather View 32 v70,2013-11-29 01:19:00,
2013-11-28 20:29:00,48.7,44.1,30.40,NW,311,0.0,9.0,84,0.00,,,0.00,Weather View 32 v70,2013-11-29 01:29:00,
2013-11-28 20:39:00,48.5,43.6,30.39,North,360,0.0,9.0,83,0.00,,,0.00,Weather View 32 v70,2013-11-29 01:39:00,
2013-11-28 20:49:00,47.9,43.0,30.40,West,267,0.0,9.0,83,0.00,,,0.00,Weather View 32 v70,2013-11-29 01:49:00,
2013-11-28 20:55:00,47.9,43.0,30.40,West,267,0.0,9.0,83,0.00,,,0.00,Weather View 32 v70,2013-11-29 01:55:00,
2013-11-28 20:59:00,47.8,43.5,30.40,West,265,0.0,6.0,85,0.00,,,0.00,Weather View 32 v70,2013-11-29 01:59:00,
2013-11-28 21:09:00,47.5,43.2,30.40,NNW,344,0.0,6.0,85,0.00,,,0.00,Weather View 32 v70,2013-11-29 02:09:00,
2013-11-28 21:19:00,47.0,42.7,30.40,West,265,0.0,6.0,85,0.00,,,0.00,Weather View 32 v70,2013-11-29 02:19:00,
2013-11-28 21:29:00,46.5,42.2,30.40,WSW,257,0.0,6.0,85,0.00,,,0.00,Weather View 32 v70,2013-11-29 02:29:00,
2013-11-28 21:39:00,46.4,42.1,30.40,WNW,288,0.0,6.0,85,0.00,,,0.00,Weather View 32 v70,2013-11-29 02:39:00,
2013-11-28 21:49:00,46.1,42.1,30.40,West,267,0.0,5.0,86,0.00,,,0.00,Weather View 32 v70,2013-11-29 02:49:00,
2013-11-28 21:56:00,46.1,42.1,30.40,West,267,0.0,5.0,86,0.00,,,0.00,Weather View 32 v70,2013-11-29 02:56:00,
2013-11-28 21:59:00,45.8,41.8,30.40,West,271,0.0,5.0,86,0.00,,,0.00,Weather View 32 v70,2013-11-29 02:59:00,
2013-11-28 22:09:00,45.6,41.6,30.40,West,261,2.0,4.0,86,0.00,,,0.00,Weather View 32 v70,2013-11-29 03:09:00,
2013-11-28 22:19:00,45.5,41.5,30.40,WSW,257,2.0,4.0,86,0.00,,,0.00,Weather View 32 v70,2013-11-29 03:19:00,
2013-11-28 22:29:00,45.2,41.6,30.40,West,271,0.0,4.0,87,0.00,,,0.00,Weather View 32 v70,2013-11-29 03:29:00,
2013-11-28 22:39:00,45.0,41.4,30.40,West,261,1.0,4.0,87,0.00,,,0.00,Weather View 32 v70,2013-11-29 03:39:00,
2013-11-28 22:49:00,44.8,41.5,30.40,West,281,0.0,6.0,88,0.00,,,0.00,Weather View 32 v70,2013-11-29 03:49:00,
2013-11-28 22:56:00,44.8,41.5,30.40,West,281,0.0,6.0,88,0.00,,,0.00,Weather View 32 v70,2013-11-29 03:56:00,
2013-11-28 22:59:00,44.5,41.2,30.40,West,259,0.0,6.0,88,0.00,,,0.00,Weather View 32 v70,2013-11-29 03:59:00,
2013-11-28 23:09:00,44.4,41.4,30.40,WSW,257,0.0,6.0,89,0.00,,,0.00,Weather View 32 v70,2013-11-29 04:09:00,
2013-11-28 23:19:00,44.2,41.2,30.39,North,360,0.0,6.0,89,0.00,,,0.00,Weather View 32 v70,2013-11-29 04:19:00,
2013-11-28 23:29:00,44.2,41.2,30.39,West,261,1.0,6.0,89,0.00,,,0.00,Weather View 32 v70,2013-11-29 04:29:00,
2013-11-28 23:39:00,44.1,41.1,30.39,WNW,284,2.0,6.0,89,0.00,,,0.00,Weather View 32 v70,2013-11-29 04:39:00,
2013-11-28 23:49:00,44.2,41.2,30.39,WNW,292,4.0,5.0,89,0.00,,,0.00,Weather View 32 v70,2013-11-29 04:49:00,
2013-11-28 23:57:00,44.2,41.2,30.39,WNW,292,4.0,5.0,89,0.00,,,0.00,Weather View 32 v70,2013-11-29 04:57:00,